Time;durP1;ratioP1;P1;durP2;ratioP2;P2;SDS_P1;SDS_P2;PMS_P1;PMS_P2;Temp;Humidity;BMP_temperature;BMP_pressure;BME280_temperature;BME280_humidity;BME280_pressure;Samples;Min_cycle;Max_cycle;Signal;HPM_P1;HPM_P2
2022/08/21 00:01:38;;;;;;;;;;;23.80;68.70;;;23.20;63.07;95718.69;4265007;33;19963;-85
2022/08/21 00:04:07;;;;;;;;;;;23.80;68.70;;;23.22;63.25;95721.94;4232833;33;20117;-85
2022/08/21 00:06:36;;;;;;;;;;;23.70;68.70;;;23.21;63.34;95711.16;4244475;33;19908;-84
2022/08/21 00:09:06;;;;;;;;;;;23.80;68.70;;;23.20;63.27;95720.69;4293200;33;20140;-85
2022/08/21 00:11:35;;;;;;;;;;;23.70;68.70;;;23.20;63.42;95724.28;4244482;33;20108;-84
2022/08/21 00:14:04;;;;;;;;;;;23.80;68.70;;;23.20;63.08;95729.88;4243929;33;19936;-84
2022/08/21 00:16:33;;;;;;;;;;;23.70;68.70;;;23.20;63.20;95741.03;4268136;33;19901;-84
2022/08/21 00:19:03;;;;;;;;;;;23.70;68.70;;;23.20;63.08;95740.25;4244128;33;19901;-84
2022/08/21 00:21:32;;;;;;;;;;;23.70;68.70;;;23.19;63.14;95733.81;4267942;33;19902;-85
2022/08/21 00:24:00;;;;;;;;;;;23.70;68.70;;;23.19;62.98;95728.22;4243706;33;20129;-84
2022/08/21 00:26:29;;;;;;;;;;;23.70;68.70;;;23.19;63.13;95719.84;4244302;33;19908;-84
2022/08/21 00:28:58;;;;;;;;;;;23.70;68.70;;;23.19;63.08;95711.47;4244083;33;20074;-85
2022/08/21 00:31:27;;;;;;;;;;;23.70;68.70;;;23.19;63.04;95711.47;4268220;33;20114;-84
2022/08/21 00:33:55;;;;;;;;;;;23.70;68.70;;;23.18;63.18;95718.22;4243677;33;20550;-84
2022/08/21 00:36:25;;;;;;;;;;;23.70;68.70;;;23.19;63.43;95721.84;4243454;33;19977;-86
2022/08/21 00:38:54;;;;;;;;;;;23.70;68.80;;;23.18;63.41;95726.59;4244007;33;20008;-85
2022/08/21 00:41:23;;;;;;;;;;;23.70;68.80;;;23.18;63.44;95721.00;4244195;33;19909;-85
2022/08/21 00:43:51;;;;;;;;;;;23.70;68.80;;;23.19;63.40;95721.84;4243560;33;19901;-85
2022/08/21 00:46:20;;;;;;;;;;;23.70;68.80;;;23.18;63.19;95725.81;4267711;33;19909;-86
2022/08/21 00:48:48;;;;;;;;;;;23.70;68.80;;;23.18;63.38;95721.00;4267710;33;19901;-85
2022/08/21 00:51:22;;;;;;;;;;;23.70;68.80;;;23.18;63.52;95714.63;4243904;33;19901;-85
2022/08/21 00:53:57;;;;;;;;;;;23.70;68.80;;;23.18;63.37;95707.06;4267298;33;19909;-85
2022/08/21 00:56:25;;;;;;;;;;;23.70;68.80;;;23.16;63.24;95700.22;4267809;33;20095;-85
2022/08/21 00:58:54;;;;;;;;;;;23.70;68.80;;;23.17;63.15;95707.44;4243744;33;19901;-84
2022/08/21 01:01:22;;;;;;;;;;;23.70;68.90;;;23.16;63.39;95698.25;4243917;33;19901;-85
2022/08/21 01:03:51;;;;;;;;;;;23.70;68.80;;;23.16;63.29;95703.84;4267351;33;19981;-85
2022/08/21 01:06:20;;;;;;;;;;;23.70;68.80;;;23.16;63.12;95701.06;4267619;33;20076;-85
2022/08/21 01:08:48;;;;;;;;;;;23.70;68.70;;;23.16;63.35;95695.47;4267419;33;19901;-85
2022/08/21 01:11:19;;;;;;;;;;;23.70;68.80;;;23.15;62.97;95682.66;4267578;33;19909;-85
2022/08/21 01:13:48;;;;;;;;;;;23.70;68.80;;;23.15;63.10;95677.09;4243526;33;19902;-85
2022/08/21 01:16:18;;;;;;;;;;;23.70;68.80;;;23.14;63.33;95675.47;4243814;33;20387;-84
2022/08/21 01:18:47;;;;;;;;;;;23.70;68.80;;;23.15;63.31;95679.88;4267414;33;20224;-85
2022/08/21 01:21:19;;;;;;;;;;;23.70;68.80;;;23.14;63.21;95687.44;4243634;33;20105;-84
2022/08/21 01:23:52;;;;;;;;;;;23.70;68.80;;;23.13;63.27;95673.84;4266894;33;20209;-85
2022/08/21 01:26:22;;;;;;;;;;;23.70;68.80;;;23.14;63.48;95683.84;4267475;33;19909;-87
2022/08/21 01:28:56;;;;;;;;;;;23.70;68.80;;;23.14;63.14;95678.25;4267364;33;20010;-84
2022/08/21 01:31:26;;;;;;;;;;;23.70;68.70;;;23.13;63.33;95674.66;4267330;33;19901;-84
2022/08/21 01:33:56;;;;;;;;;;;23.70;68.70;;;23.13;63.48;95680.22;4266998;33;20120;-85
2022/08/21 01:36:26;;;;;;;;;;;23.70;68.70;;;23.12;63.37;95688.97;4267078;33;19961;-84
2022/08/21 01:38:55;;;;;;;;;;;23.70;68.70;;;23.13;62.79;95680.22;4243515;33;19901;-85
2022/08/21 01:41:23;;;;;;;;;;;23.70;68.60;;;23.12;62.93;95672.22;4292362;33;19901;-84
2022/08/21 01:43:52;;;;;;;;;;;23.70;68.60;;;23.12;63.09;95678.59;4291773;33;19901;-85
2022/08/21 01:46:20;;;;;;;;;;;23.70;68.60;;;23.12;63.04;95663.84;4258747;33;20160;-85
2022/08/21 01:48:49;;;;;;;;;;;23.70;68.60;;;23.12;62.94;95672.22;4266809;33;20127;-84
2022/08/21 01:51:18;;;;;;;;;;;23.70;68.60;;;23.10;63.10;95674.56;4243330;33;19909;-84
2022/08/21 01:53:48;;;;;;;;;;;23.70;68.60;;;23.11;62.93;95659.44;4266741;33;20362;-85
2022/08/21 01:56:17;;;;;;;;;;;23.70;68.60;;;23.11;63.14;95673.41;4261510;33;19925;-86
2022/08/21 01:58:47;;;;;;;;;;;23.60;68.60;;;23.10;63.22;95674.56;4214932;33;19909;-86
2022/08/21 02:01:16;;;;;;;;;;;23.70;68.60;;;23.10;63.33;95674.56;4238433;33;20005;-85
2022/08/21 02:03:44;;;;;;;;;;;23.70;68.70;;;23.08;63.37;95674.13;4237898;33;20218;-85
2022/08/21 02:06:15;;;;;;;;;;;23.60;68.60;;;23.10;63.23;95682.94;4238309;33;19925;-85
2022/08/21 02:08:43;;;;;;;;;;;23.60;68.50;;;23.08;62.67;95688.09;4214717;33;19901;-86
2022/08/21 02:11:13;;;;;;;;;;;23.70;68.50;;;23.09;62.85;95681.31;4238258;33;20028;-85
2022/08/21 02:13:42;;;;;;;;;;;23.60;68.30;;;23.09;62.56;95667.38;4214174;33;20029;-85
2022/08/21 02:16:11;;;;;;;;;;;23.60;68.30;;;23.07;63.31;95673.34;4214837;33;19901;-85
2022/08/21 02:18:39;;;;;;;;;;;23.60;68.30;;;23.08;62.76;95682.50;4262756;33;19959;-86
2022/08/21 02:21:08;;;;;;;;;;;23.60;68.40;;;23.07;62.85;95681.69;4238252;33;19902;-86
2022/08/21 02:23:36;;;;;;;;;;;23.60;68.50;;;23.08;63.20;95685.28;4214172;33;20079;-85
2022/08/21 02:26:07;;;;;;;;;;;23.60;68.50;;;23.07;62.81;95675.28;4238024;33;19902;-85
2022/08/21 02:28:37;;;;;;;;;;;23.60;68.40;;;23.06;63.14;95676.47;4237991;33;20221;-85
2022/08/21 02:31:06;;;;;;;;;;;23.60;68.50;;;23.06;63.11;95680.09;4238329;33;19902;-86
2022/08/21 02:33:35;;;;;;;;;;;23.60;68.50;;;23.06;63.07;95673.69;4213981;33;19908;-86
2022/08/21 02:36:04;;;;;;;;;;;23.60;68.40;;;23.06;62.71;95670.88;4214566;33;19902;-85
2022/08/21 02:38:37;;;;;;;;;;;23.60;68.40;;;23.05;62.77;95672.06;4214523;33;20371;-86
2022/08/21 02:41:07;;;;;;;;;;;23.60;68.40;;;23.05;63.05;95666.47;4226574;33;19902;-86
2022/08/21 02:43:37;;;;;;;;;;;23.60;68.40;;;23.05;62.83;95660.88;4214067;33;20017;-86
2022/08/21 02:46:06;;;;;;;;;;;23.60;68.40;;;23.05;62.87;95658.09;4237744;33;20323;-86
2022/08/21 02:48:35;;;;;;;;;;;23.60;68.40;;;23.05;63.11;95660.88;4237684;33;19902;-85
2022/08/21 02:51:06;;;;;;;;;;;23.60;68.40;;;23.04;63.10;95650.94;4214210;33;20320;-85
2022/08/21 02:53:36;;;;;;;;;;;23.60;68.40;;;23.05;63.01;95649.72;4213039;33;19902;-85
2022/08/21 02:56:07;;;;;;;;;;;23.60;68.30;;;23.03;63.21;95654.88;4213420;33;19996;-85
2022/08/21 02:58:40;;;;;;;;;;;23.60;68.40;;;23.03;63.00;95657.69;4213878;33;19902;-85
2022/08/21 03:01:09;;;;;;;;;;;23.60;68.40;;;23.03;62.85;95657.69;4237804;33;20116;-85
2022/08/21 03:03:39;;;;;;;;;;;23.60;68.40;;;23.02;62.90;95644.91;4237334;33;19909;-85
2022/08/21 03:06:07;;;;;;;;;;;23.60;68.30;;;23.02;62.50;95661.66;4203527;33;20015;-84
2022/08/21 03:08:37;;;;;;;;;;;23.60;68.40;;;23.02;62.97;95667.22;4237485;33;19902;-85
2022/08/21 03:11:06;;;;;;;;;;;23.60;68.30;;;23.02;63.04;95667.22;4226480;33;20426;-84
2022/08/21 03:13:34;;;;;;;;;;;23.60;68.30;;;23.02;63.10;95684.78;4213710;33;20168;-85
2022/08/21 03:16:06;;;;;;;;;;;23.60;68.30;;;23.01;62.95;95691.53;4214209;33;20033;-85
2022/08/21 03:18:35;;;;;;;;;;;23.60;68.20;;;23.01;62.59;95693.53;4214031;33;19909;-85
2022/08/21 03:21:04;;;;;;;;;;;23.60;68.30;;;23.01;62.93;95690.72;4237501;33;20267;-85
2022/08/21 03:23:32;;;;;;;;;;;23.60;68.10;;;22.98;62.81;95695.88;4213637;33;19990;-84
2022/08/21 03:26:01;;;;;;;;;;;23.60;68.20;;;23.01;62.89;95693.53;4214024;33;20087;-84
2022/08/21 03:28:30;;;;;;;;;;;23.60;68.20;;;22.99;62.88;95703.06;4237571;33;19902;-85
2022/08/21 03:30:58;;;;;;;;;;;23.50;68.20;;;22.99;62.89;95703.06;4213976;33;19902;-85
2022/08/21 03:33:28;;;;;;;;;;;23.60;68.10;;;22.99;62.46;95703.06;4261734;33;20236;-85
2022/08/21 03:36:00;;;;;;;;;;;23.50;67.90;;;22.98;62.60;95701.44;4213829;33;19958;-84
2022/08/21 03:38:30;;;;;;;;;;;23.60;67.80;;;22.98;62.30;95707.03;4237352;33;19981;-85
2022/08/21 03:40:59;;;;;;;;;;;23.60;67.90;;;22.98;62.55;95707.03;4262208;33;19902;-85
2022/08/21 03:43:28;;;;;;;;;;;23.60;68.00;;;22.97;62.35;95711.00;4237006;33;20121;-84
2022/08/21 03:45:56;;;;;;;;;;;23.50;67.90;;;22.98;62.20;95704.25;4237308;33;20103;-86
2022/08/21 03:48:25;;;;;;;;;;;23.60;67.90;;;22.98;62.77;95701.44;4237183;33;19902;-86
2022/08/21 03:50:55;;;;;;;;;;;23.60;68.00;;;22.98;62.42;95695.88;4262093;33;19902;-85
2022/08/21 03:53:24;;;;;;;;;;;23.50;67.90;;;22.97;62.68;95691.44;4236848;33;20235;-85
2022/08/21 03:55:53;;;;;;;;;;;23.60;68.00;;;22.98;62.42;95707.03;4237344;33;19901;-86
2022/08/21 03:58:24;;;;;;;;;;;23.50;68.00;;;22.99;62.84;95702.25;4261982;33;19960;-84
2022/08/21 04:00:55;;;;;;;;;;;23.60;68.20;;;23.01;62.44;95707.47;4237231;33;19913;-85
2022/08/21 04:03:24;;;;;;;;;;;23.50;68.20;;;22.99;62.83;95700.28;4236620;33;19909;-85
2022/08/21 04:05:54;;;;;;;;;;;23.60;68.30;;;23.01;63.07;95715.84;4213668;33;20177;-84
2022/08/21 04:08:23;;;;;;;;;;;23.60;68.30;;;23.01;62.79;95710.28;4213528;33;19971;-85
2022/08/21 04:10:53;;;;;;;;;;;23.50;68.30;;;23.01;62.58;95705.47;4238448;33;19972;-84
2022/08/21 04:13:22;;;;;;;;;;;23.60;68.20;;;23.02;62.82;95707.09;4238970;33;19902;-85
2022/08/21 04:15:51;;;;;;;;;;;23.60;68.20;;;23.03;62.58;95716.31;4216209;33;20078;-85
2022/08/21 04:18:20;;;;;;;;;;;23.60;68.10;;;23.04;62.57;95721.50;4216146;33;20039;-86
2022/08/21 04:20:50;;;;;;;;;;;23.60;68.20;;;23.03;62.98;95719.09;4239611;33;19909;-84
2022/08/21 04:23:21;;;;;;;;;;;23.60;68.20;;;23.01;62.90;95727.81;4239091;33;19902;-85
2022/08/21 04:25:49;;;;;;;;;;;23.60;68.20;;;23.03;62.54;95725.47;4216130;33;20235;-84
2022/08/21 04:28:18;;;;;;;;;;;23.60;68.10;;;23.02;62.57;95718.28;4215842;33;19902;-85
2022/08/21 04:30:47;;;;;;;;;;;23.60;68.10;;;23.02;62.71;95721.06;4239311;33;20097;-85
2022/08/21 04:33:15;;;;;;;;;;;23.60;68.00;;;23.02;62.82;95711.88;4238810;33;19916;-85
2022/08/21 04:35:44;;;;;;;;;;;23.60;68.00;;;23.01;62.67;95721.44;4239256;33;20368;-85
2022/08/21 04:38:12;;;;;;;;;;;23.60;68.00;;;23.04;62.37;95715.13;4239321;33;19998;-85
2022/08/21 04:40:42;;;;;;;;;;;23.60;68.00;;;23.03;62.41;95721.88;4215912;33;19906;-85
2022/08/21 04:43:11;;;;;;;;;;;23.60;68.00;;;23.03;62.42;95710.72;4215352;33;20156;-84
2022/08/21 04:45:41;;;;;;;;;;;23.60;67.90;;;23.05;62.57;95716.72;4215676;33;20134;-84
2022/08/21 04:48:12;;;;;;;;;;;23.60;67.80;;;23.03;62.58;95713.50;4215591;33;20014;-85
2022/08/21 04:50:43;;;;;;;;;;;23.60;67.90;;;23.06;62.45;95718.34;4239490;33;20368;-85
2022/08/21 04:53:25;;;;;;;;;;;23.60;68.00;;;23.02;62.63;95721.06;4215043;33;19902;-84
2022/08/21 04:55:56;;;;;;;;;;;23.60;68.00;;;23.04;62.75;95715.13;4239147;33;19902;-84
2022/08/21 04:58:25;;;;;;;;;;;23.60;68.10;;;23.02;62.78;95707.09;4215583;33;19985;-84
2022/08/21 05:00:56;;;;;;;;;;;23.60;68.10;;;23.03;62.70;95708.72;4215580;33;19901;-84
2022/08/21 05:03:24;;;;;;;;;;;23.60;68.20;;;23.05;62.93;95725.09;4238653;33;19909;-85
2022/08/21 05:05:53;;;;;;;;;;;23.60;68.40;;;23.02;62.74;95709.09;4210650;33;20044;-85
2022/08/21 05:08:23;;;;;;;;;;;23.60;68.40;;;23.02;63.03;95704.31;4235089;33;20255;-85
2022/08/21 05:10:52;;;;;;;;;;;23.60;68.50;;;23.04;63.20;95701.19;4234123;33;19910;-83
2022/08/21 05:13:22;;;;;;;;;;;23.60;68.40;;;23.05;63.10;95705.56;4210118;33;20144;-85
2022/08/21 05:15:50;;;;;;;;;;;23.60;68.50;;;23.04;62.97;95703.97;4210648;33;20248;-86
2022/08/21 05:18:19;;;;;;;;;;;23.60;68.60;;;23.04;63.02;95704.75;4210347;33;19909;-85
2022/08/21 05:20:47;;;;;;;;;;;23.60;68.50;;;23.05;62.99;95705.56;4233731;33;20084;-85
2022/08/21 05:23:16;;;;;;;;;;;23.60;68.50;;;23.04;63.40;95709.56;4186907;33;19909;-85
2022/08/21 05:25:45;;;;;;;;;;;23.60;68.50;;;23.06;63.08;95710.78;4204368;33;19909;-85
2022/08/21 05:28:13;;;;;;;;;;;23.60;68.60;;;23.07;62.99;95709.63;4238707;33;20451;-85
2022/08/21 05:30:43;;;;;;;;;;;23.60;68.50;;;23.08;63.16;95716.81;4215297;33;20083;-84
2022/08/21 05:33:12;;;;;;;;;;;23.60;68.60;;;23.07;63.38;95712.41;4238201;33;19909;-84
2022/08/21 05:35:40;;;;;;;;;;;23.60;68.60;;;23.09;62.91;95706.47;4238751;33;19968;-84
2022/08/21 05:38:09;;;;;;;;;;;23.60;68.50;;;23.09;63.35;95698.09;4215088;33;19901;-84
2022/08/21 05:40:38;;;;;;;;;;;23.60;68.80;;;23.09;63.46;95700.88;4238427;33;20017;-84
2022/08/21 05:43:06;;;;;;;;;;;23.60;68.80;;;23.09;63.54;95706.47;4262819;33;20106;-84
2022/08/21 05:45:35;;;;;;;;;;;23.60;68.80;;;23.08;63.44;95716.00;4215083;33;19909;-85
2022/08/21 05:48:08;;;;;;;;;;;23.60;68.80;;;23.09;63.32;95714.84;4210079;33;20340;-85
2022/08/21 05:50:38;;;;;;;;;;;23.60;68.80;;;23.11;63.49;95712.50;4210031;33;19901;-84
2022/08/21 05:53:06;;;;;;;;;;;23.70;68.70;;;23.10;63.21;95708.91;4214532;33;20348;-85
2022/08/21 05:55:36;;;;;;;;;;;23.60;68.60;;;23.13;63.59;95712.94;4238421;33;19917;-84
2022/08/21 05:58:05;;;;;;;;;;;23.70;68.90;;;23.12;63.27;95717.69;4238339;33;20130;-85
2022/08/21 06:00:33;;;;;;;;;;;23.70;68.80;;;23.14;63.53;95715.34;4214783;33;19901;-85
2022/08/21 06:03:02;;;;;;;;;;;23.70;68.90;;;23.16;63.46;95709.41;4238129;33;20133;-84
2022/08/21 06:05:33;;;;;;;;;;;23.70;68.80;;;23.20;63.41;95706.72;4238306;33;20100;-84
2022/08/21 06:08:01;;;;;;;;;;;23.70;68.80;;;23.22;63.22;95710.78;4238218;33;19949;-84
2022/08/21 06:10:30;;;;;;;;;;;23.80;68.70;;;23.25;63.21;95704.47;4214769;33;19902;-84
2022/08/21 06:12:59;;;;;;;;;;;23.80;68.60;;;23.28;63.02;95700.94;4214705;33;20264;-85
2022/08/21 06:15:27;;;;;;;;;;;23.80;68.40;;;23.35;62.63;95705.88;4214690;33;20025;-85
2022/08/21 06:17:56;;;;;;;;;;;23.90;68.30;;;23.40;62.42;95705.56;4238043;33;20235;-84
2022/08/21 06:20:25;;;;;;;;;;;23.90;68.00;;;23.45;62.42;95707.25;4214774;33;20121;-85
2022/08/21 06:22:57;;;;;;;;;;;24.00;67.70;;;23.50;62.42;95694.97;4214621;33;19929;-85
2022/08/21 06:25:26;;;;;;;;;;;24.00;67.60;;;23.54;62.14;95699.47;4237879;33;20221;-85
2022/08/21 06:28:00;;;;;;;;;;;24.00;67.40;;;23.57;62.02;95695.94;4214658;33;19902;-85
2022/08/21 06:30:29;;;;;;;;;;;24.10;67.30;;;23.59;62.03;95693.59;4214426;33;20129;-84
2022/08/21 06:32:57;;;;;;;;;;;24.10;67.30;;;23.62;61.77;95694.03;4237392;33;19902;-84
2022/08/21 06:35:28;;;;;;;;;;;24.20;67.10;;;23.66;61.90;95704.09;4214200;33;19902;-84
2022/08/21 06:37:58;;;;;;;;;;;24.20;67.00;;;23.70;61.61;95706.97;4237832;33;20054;-84
2022/08/21 06:40:27;;;;;;;;;;;24.20;66.90;;;23.71;61.60;95700.19;4214437;33;19957;-83
2022/08/21 06:42:55;;;;;;;;;;;24.30;66.90;;;23.74;61.52;95699.47;4214135;33;19902;-85
2022/08/21 06:45:24;;;;;;;;;;;24.30;66.70;;;23.76;61.63;95702.69;4214017;33;19909;-85
2022/08/21 06:47:53;;;;;;;;;;;24.30;66.70;;;23.77;61.23;95701.53;4237646;33;19909;-85
2022/08/21 06:50:22;;;;;;;;;;;24.30;66.60;;;23.80;61.42;95697.19;4262666;33;20098;-85
2022/08/21 06:52:50;;;;;;;;;;;24.30;66.50;;;23.81;61.16;95691.22;4237811;33;19902;-85
2022/08/21 06:55:20;;;;;;;;;;;24.30;66.40;;;23.83;61.51;95688.84;4237294;33;19902;-85
2022/08/21 06:57:49;;;;;;;;;;;24.40;66.50;;;23.85;61.31;95697.69;4214070;33;19912;-85
2022/08/21 07:00:18;;;;;;;;;;;24.40;66.30;;;23.86;61.46;95693.72;4237727;33;20082;-85
2022/08/21 07:02:47;;;;;;;;;;;24.40;66.30;;;23.89;61.27;95687.38;4237831;33;19902;-85
2022/08/21 07:05:15;;;;;;;;;;;24.50;66.50;;;23.92;61.45;95693.41;4237169;33;19902;-85
2022/08/21 07:07:44;;;;;;;;;;;24.50;66.40;;;23.93;61.19;95686.66;4214462;33;20450;-85
2022/08/21 07:10:12;;;;;;;;;;;24.50;66.30;;;23.94;61.01;95683.47;4237587;33;20273;-85
2022/08/21 07:12:42;;;;;;;;;;;24.50;66.20;;;23.94;60.90;95689.06;4237670;33;19902;-86
2022/08/21 07:15:11;;;;;;;;;;;24.50;66.20;;;23.93;61.36;95686.66;4213569;33;19962;-85
2022/08/21 07:17:40;;;;;;;;;;;24.50;66.20;;;23.89;61.28;95686.56;4237574;33;20032;-85
2022/08/21 07:20:09;;;;;;;;;;;24.50;66.30;;;23.84;61.14;95684.88;4214169;33;20244;-85
2022/08/21 07:22:41;;;;;;;;;;;24.50;66.40;;;23.82;61.24;95681.63;4214103;33;20008;-86
2022/08/21 07:25:10;;;;;;;;;;;24.40;66.40;;;23.80;61.53;95683.19;4261770;33;19909;-85
2022/08/21 07:27:39;;;;;;;;;;;24.40;66.50;;;23.78;61.50;95671.56;4214038;33;20158;-86
2022/08/21 07:30:10;;;;;;;;;;;24.40;66.60;;;23.79;61.78;95670.41;4237490;33;19909;-85
2022/08/21 07:32:39;;;;;;;;;;;24.30;66.70;;;23.81;61.63;95668.88;4214038;33;19909;-85
2022/08/21 07:35:08;;;;;;;;;;;24.40;66.70;;;23.86;61.44;95662.97;4213462;33;19991;-85
2022/08/21 07:37:37;;;;;;;;;;;24.40;66.70;;;23.93;61.15;95665.09;4213787;33;20053;-84
2022/08/21 07:40:07;;;;;;;;;;;24.40;66.40;;;23.99;60.82;95669.22;4213976;33;20115;-85
2022/08/21 07:42:36;;;;;;;;;;;24.50;66.40;;;24.05;60.89;95658.53;4213789;33;19902;-85
2022/08/21 07:45:05;;;;;;;;;;;24.50;66.30;;;24.10;60.57;95666.59;4237896;33;20113;-84
2022/08/21 07:47:36;;;;;;;;;;;24.60;66.00;;;24.13;60.56;95663.06;4264540;33;19902;-84
2022/08/21 07:50:05;;;;;;;;;;;24.60;65.80;;;24.16;60.86;95653.94;4216209;33;19960;-85
2022/08/21 07:52:34;;;;;;;;;;;24.60;65.80;;;24.17;60.64;95657.53;4244751;33;20102;-86
2022/08/21 07:55:02;;;;;;;;;;;24.70;65.90;;;24.18;60.36;95659.97;4239108;33;20132;-85
2022/08/21 07:57:31;;;;;;;;;;;24.70;65.80;;;24.20;60.46;95657.59;4216173;33;19901;-85
2022/08/21 07:59:59;;;;;;;;;;;24.70;65.70;;;24.23;60.36;95649.63;4239636;33;20197;-84
2022/08/21 08:02:30;;;;;;;;;;;24.70;65.70;;;24.26;60.47;95648.91;4216503;33;19902;-86
2022/08/21 08:05:01;;;;;;;;;;;24.70;65.70;;;24.28;60.39;95643.75;4215888;33;19902;-86
2022/08/21 08:07:30;;;;;;;;;;;24.80;65.60;;;24.28;60.28;95652.13;4216155;33;19902;-86
2022/08/21 08:09:59;;;;;;;;;;;24.80;65.60;;;24.26;60.41;95643.31;4239606;33;19924;-86
2022/08/21 08:12:29;;;;;;;;;;;24.80;65.60;;;24.24;60.56;95645.66;4215977;33;20005;-84
2022/08/21 08:14:57;;;;;;;;;;;24.80;65.60;;;24.21;60.46;95645.22;4239158;33;19977;-85
2022/08/21 08:17:26;;;;;;;;;;;24.70;65.70;;;24.20;60.51;95645.63;4216039;33;19909;-85
2022/08/21 08:19:55;;;;;;;;;;;24.70;65.70;;;24.19;60.66;95638.41;4264253;33;19902;-85
2022/08/21 08:22:25;;;;;;;;;;;24.70;65.80;;;24.19;60.89;95632.81;4215948;33;20365;-85
2022/08/21 08:24:53;;;;;;;;;;;24.70;65.80;;;24.18;60.81;95623.63;4239033;33;20011;-85
2022/08/21 08:27:24;;;;;;;;;;;24.70;65.90;;;24.19;60.99;95628.03;4215915;33;20141;-84
2022/08/21 08:29:53;;;;;;;;;;;24.70;66.10;;;24.20;60.96;95623.25;4239483;33;20279;-85
2022/08/21 08:32:22;;;;;;;;;;;24.70;66.10;;;24.20;60.41;95621.22;4264181;33;20239;-85
2022/08/21 08:34:52;;;;;;;;;;;24.70;66.00;;;24.22;60.90;95623.69;4238626;33;20347;-85
2022/08/21 08:37:20;;;;;;;;;;;24.70;66.00;;;24.22;60.86;95615.28;4239018;33;19909;-85
2022/08/21 08:39:50;;;;;;;;;;;24.70;66.00;;;24.21;60.56;95614.47;4236654;33;19929;-86
2022/08/21 08:42:24;;;;;;;;;;;24.70;65.90;;;24.21;60.63;95614.47;4215991;33;19907;-85
2022/08/21 08:45:01;;;;;;;;;;;24.70;65.90;;;24.23;60.87;95610.47;4238380;33;20217;-86
2022/08/21 08:47:31;;;;;;;;;;;24.70;65.80;;;24.22;60.40;95612.50;4215768;33;19909;-85
2022/08/21 08:50:04;;;;;;;;;;;24.70;65.80;;;24.20;60.73;95607.25;4215650;33;20139;-86
2022/08/21 08:52:35;;;;;;;;;;;24.70;65.90;;;24.21;60.67;95606.06;4215707;33;19902;-86
2022/08/21 08:55:08;;;;;;;;;;;24.70;65.90;;;24.21;61.07;95597.69;4238541;33;20043;-86
2022/08/21 08:57:37;;;;;;;;;;;24.80;65.90;;;24.22;60.64;95598.50;4263458;33;20461;-85
2022/08/21 09:00:09;;;;;;;;;;;24.70;65.90;;;24.19;60.59;95588.88;4239103;33;19902;-85
2022/08/21 09:02:39;;;;;;;;;;;24.70;65.90;;;24.17;60.80;95594.03;4263807;33;20229;-86
2022/08/21 09:05:08;;;;;;;;;;;24.70;66.00;;;24.16;60.93;95586.84;4238684;33;19910;-86
2022/08/21 09:07:45;;;;;;;;;;;24.70;66.00;;;24.15;60.81;95581.59;4215472;33;19912;-85
2022/08/21 09:10:19;;;;;;;;;;;24.70;66.00;;;24.14;60.79;95586.38;4263773;33;19950;-85
2022/08/21 09:12:57;;;;;;;;;;;24.70;66.10;;;24.14;60.57;95580.00;4263780;33;19902;-85
2022/08/21 09:15:30;;;;;;;;;;;24.70;66.20;;;24.12;61.08;95566.38;4215115;33;19902;-86
2022/08/21 09:18:19;;;;;;;;;;;24.70;66.20;;;24.13;60.97;95568.00;4238894;33;19980;-86
2022/08/21 09:21:04;;;;;;;;;;;24.70;66.20;;;24.12;60.90;95563.59;4238889;33;19909;-85
2022/08/21 09:23:51;;;;;;;;;;;24.70;66.20;;;24.13;61.11;95558.81;4214763;33;20141;-85
2022/08/21 09:26:22;;;;;;;;;;;24.70;66.20;;;24.13;61.10;95553.22;4238680;33;19914;-85
2022/08/21 09:28:53;;;;;;;;;;;24.70;66.10;;;24.13;61.19;95553.22;4238740;33;19910;-85
2022/08/21 09:31:24;;;;;;;;;;;24.70;66.20;;;24.11;60.93;95542.41;4263371;33;19909;-85
2022/08/21 09:33:59;;;;;;;;;;;24.70;66.30;;;24.12;61.09;95543.22;4214829;33;20079;-85
2022/08/21 09:36:38;;;;;;;;;;;24.70;66.20;;;24.11;61.12;95536.00;4215126;33;19902;-86
2022/08/21 09:39:07;;;;;;;;;;;24.60;66.20;;;24.10;61.25;95531.59;4215088;33;19901;-85
2022/08/21 09:41:38;;;;;;;;;;;24.60;66.20;;;24.07;60.96;95527.56;4238468;33;19902;-86
2022/08/21 09:44:08;;;;;;;;;;;24.60;66.20;;;24.07;61.16;95532.34;4214595;33;20157;-86
2022/08/21 09:46:37;;;;;;;;;;;24.70;66.40;;;24.04;61.38;95536.69;4238605;33;20112;-86
2022/08/21 09:49:05;;;;;;;;;;;24.60;66.40;;;24.03;61.35;95541.47;4214811;33;20162;-86
2022/08/21 09:51:36;;;;;;;;;;;24.60;66.50;;;24.00;61.59;95541.41;4238593;33;20089;-86
2022/08/21 09:54:15;;;;;;;;;;;24.60;66.50;;;23.99;61.54;95534.22;4214489;33;20129;-86
2022/08/21 09:59:43;;;;;;;;;;;24.50;66.80;;;23.95;61.57;95520.16;4214747;33;20217;-86
2022/08/21 10:02:31;;;;;;;;;;;24.60;66.80;;;23.94;61.49;95520.53;4214896;33;19956;-86
2022/08/21 10:05:03;;;;;;;;;;;24.50;66.90;;;23.92;61.73;95517.31;4237797;33;19985;-85
2022/08/21 10:07:32;;;;;;;;;;;24.50;66.90;;;23.92;61.91;95520.91;4214848;33;20461;-86
2022/08/21 10:10:04;;;;;;;;;;;24.50;66.90;;;23.89;61.83;95514.06;4214673;33;19906;-86
2022/08/21 10:12:42;;;;;;;;;;;24.50;67.00;;;23.90;61.87;95509.28;4214909;33;20138;-85
2022/08/21 10:15:20;;;;;;;;;;;24.50;67.10;;;23.89;61.95;95511.28;4262557;33;20213;-86
2022/08/21 10:17:57;;;;;;;;;;;24.50;67.10;;;23.89;61.89;95500.09;4214731;33;20005;-87
2022/08/21 10:20:30;;;;;;;;;;;24.50;67.10;;;23.90;61.98;95498.09;4214821;33;19902;-85
2022/08/21 10:23:09;;;;;;;;;;;24.50;67.00;;;23.90;61.71;95490.53;4214661;33;19998;-86
2022/08/21 10:25:42;;;;;;;;;;;24.50;67.00;;;23.92;61.70;95484.56;4214670;33;20034;-86
2022/08/21 10:28:16;;;;;;;;;;;24.50;66.90;;;23.93;61.72;95480.56;4238063;33;20127;-86
2022/08/21 10:30:49;;;;;;;;;;;24.50;67.00;;;23.94;61.66;95473.81;4214518;33;20120;-86
2022/08/21 10:33:27;;;;;;;;;;;24.50;66.90;;;23.97;61.54;95469.47;4214108;33;20007;-86
2022/08/21 10:36:02;;;;;;;;;;;24.50;66.90;;;23.96;61.66;95463.09;4209541;33;20077;-86
2022/08/21 10:38:57;;;;;;;;;;;24.50;66.90;;;23.96;61.60;95456.69;4234027;33;20094;-86
2022/08/21 10:41:38;;;;;;;;;;;24.50;66.90;;;23.98;61.57;95457.13;4186611;33;20107;-85
2022/08/21 10:44:15;;;;;;;;;;;24.50;66.80;;;23.98;61.53;95454.31;4232692;33;20041;-86
2022/08/21 10:46:55;;;;;;;;;;;24.50;66.80;;;24.00;61.47;95449.16;4205963;33;23069;-86
2022/08/21 10:49:32;;;;;;;;;;;24.60;66.90;;;23.98;61.71;95437.53;4205190;33;19926;-86
2022/08/21 10:52:21;;;;;;;;;;;24.60;66.80;;;23.99;61.57;95425.19;4209049;33;19902;-84
2022/08/21 10:54:53;;;;;;;;;;;24.60;66.90;;;24.00;61.67;95435.19;4209121;33;20215;-85
2022/08/21 10:57:30;;;;;;;;;;;24.50;66.80;;;23.98;61.43;95437.53;4209507;33;20389;-84
2022/08/21 11:00:05;;;;;;;;;;;24.50;66.80;;;23.97;61.73;95435.94;4233129;33;19938;-85
2022/08/21 11:02:38;;;;;;;;;;;24.50;66.80;;;23.97;61.89;95447.09;4209505;33;20257;-86
2022/08/21 11:05:13;;;;;;;;;;;24.50;66.80;;;23.95;61.89;95450.25;4209080;33;19902;-83
2022/08/21 11:07:47;;;;;;;;;;;24.50;66.90;;;23.94;61.68;95448.66;4233804;33;20035;-85
2022/08/21 11:10:20;;;;;;;;;;;24.50;66.90;;;23.94;61.47;95447.84;4209433;33;19907;-85
2022/08/21 11:12:53;;;;;;;;;;;24.50;67.00;;;23.93;61.80;95460.22;4233889;33;20175;-84
2022/08/21 11:15:36;;;;;;;;;;;24.50;67.90;;;23.92;61.79;95467.78;4236632;33;19949;-85
2022/08/21 11:18:18;;;;;;;;;;;24.50;67.10;;;23.92;61.95;95467.78;4226159;33;20067;-85
2022/08/21 11:20:51;;;;;;;;;;;24.50;67.10;;;23.89;61.74;95469.34;4239798;33;19902;-85
2022/08/21 11:23:23;;;;;;;;;;;24.50;67.20;;;23.91;62.00;95474.56;4216388;33;20160;-85
2022/08/21 11:25:56;;;;;;;;;;;24.50;67.30;;;23.92;62.06;95467.00;4240100;33;19901;-86
2022/08/21 11:28:27;;;;;;;;;;;24.50;67.30;;;23.92;62.16;95461.41;4216632;33;20183;-85
2022/08/21 11:31:06;;;;;;;;;;;24.50;67.30;;;23.92;61.89;95453.00;4239941;33;19902;-85
2022/08/21 11:33:48;;;;;;;;;;;24.50;67.30;;;23.92;62.09;95447.41;4239495;33;19902;-84
2022/08/21 11:36:22;;;;;;;;;;;24.50;67.30;;;23.94;62.04;95453.44;4240167;33;20148;-85